sensor_id;sensor_type;location;lat;lon;timestamp;temperature;humidity
6556;DHT22;3311;48.32423000;14.29074500;2023-06-10T00:02:22;20.90;78.70
6556;DHT22;3311;48.32423000;14.29074500;2023-06-10T00:04:51;20.90;78.60
6556;DHT22;3311;48.32423000;14.29074500;2023-06-10T00:07:18;20.80;78.70
6556;DHT22;3311;48.32423000;14.29074500;2023-06-10T00:09:45;20.80;78.90
6556;DHT22;3311;48.32423000;14.29074500;2023-06-10T00:12:13;20.70;79.00
6556;DHT22;3311;48.32423000;14.29074500;2023-06-10T00:14:40;20.70;79.10
6556;DHT22;3311;48.32423000;14.29074500;2023-06-10T00:17:08;20.70;79.10
6556;DHT22;3311;48.32423000;14.29074500;2023-06-10T00:19:36;20.60;79.20
6556;DHT22;3311;48.32423000;14.29074500;2023-06-10T00:22:08;20.60;79.30
6556;DHT22;3311;48.32423000;14.29074500;2023-06-10T00:24:38;20.60;79.30
6556;DHT22;3311;48.32423000;14.29074500;2023-06-10T00:27:06;20.70;79.10
6556;DHT22;3311;48.32423000;14.29074500;2023-06-10T00:29:33;20.60;79.10
6556;DHT22;3311;48.32423000;14.29074500;2023-06-10T00:32:01;20.60;79.00
6556;DHT22;3311;48.32423000;14.29074500;2023-06-10T00:34:28;20.70;79.00
6556;DHT22;3311;48.32423000;14.29074500;2023-06-10T00:36:55;20.70;78.80
6556;DHT22;3311;48.32423000;14.29074500;2023-06-10T00:39:24;20.60;79.00
6556;DHT22;3311;48.32423000;14.29074500;2023-06-10T00:41:51;20.50;79.50
6556;DHT22;3311;48.32423000;14.29074500;2023-06-10T00:44:18;20.50;79.60
6556;DHT22;3311;48.32423000;14.29074500;2023-06-10T00:46:46;20.60;79.30
6556;DHT22;3311;48.32423000;14.29074500;2023-06-10T00:49:14;20.50;79.50
6556;DHT22;3311;48.32423000;14.29074500;2023-06-10T00:51:41;20.40;79.80
6556;DHT22;3311;48.32423000;14.29074500;2023-06-10T00:54:09;20.40;79.80
6556;DHT22;3311;48.32423000;14.29074500;2023-06-10T00:56:40;20.40;79.70
6556;DHT22;3311;48.32423000;14.29074500;2023-06-10T00:59:09;20.40;79.80
6556;DHT22;3311;48.32423000;14.29074500;2023-06-10T01:01:36;20.40;79.80
6556;DHT22;3311;48.32423000;14.29074500;2023-06-10T01:04:05;20.50;79.80
6556;DHT22;3311;48.32423000;14.29074500;2023-06-10T01:06:39;20.40;79.80
6556;DHT22;3311;48.32423000;14.29074500;2023-06-10T01:09:18;20.40;79.70
6556;DHT22;3311;48.32423000;14.29074500;2023-06-10T01:11:55;20.40;79.80
6556;DHT22;3311;48.32423000;14.29074500;2023-06-10T01:14:25;20.40;79.60
6556;DHT22;3311;48.32423000;14.29074500;2023-06-10T01:16:53;20.40;79.70
6556;DHT22;3311;48.32423000;14.29074500;2023-06-10T01:19:21;20.50;79.40
6556;DHT22;3311;48.32423000;14.29074500;2023-06-10T01:21:51;20.60;79.30
6556;DHT22;3311;48.32423000;14.29074500;2023-06-10T01:24:20;20.40;79.40
6556;DHT22;3311;48.32423000;14.29074500;2023-06-10T01:26:50;20.50;79.40
6556;DHT22;3311;48.32423000;14.29074500;2023-06-10T01:29:20;20.40;79.70
6556;DHT22;3311;48.32423000;14.29074500;2023-06-10T01:31:51;20.40;79.80
6556;DHT22;3311;48.32423000;14.29074500;2023-06-10T01:34:21;20.50;79.80
6556;DHT22;3311;48.32423000;14.29074500;2023-06-10T01:36:52;20.40;80.00
6556;DHT22;3311;48.32423000;14.29074500;2023-06-10T01:39:24;20.30;80.00
6556;DHT22;3311;48.32423000;14.29074500;2023-06-10T01:41:52;20.30;80.10
6556;DHT22;3311;48.32423000;14.29074500;2023-06-10T01:44:21;20.30;79.80
6556;DHT22;3311;48.32423000;14.29074500;2023-06-10T01:46:49;20.40;79.70
6556;DHT22;3311;48.32423000;14.29074500;2023-06-10T01:49:16;20.40;79.50
6556;DHT22;3311;48.32423000;14.29074500;2023-06-10T01:51:43;20.40;79.50
6556;DHT22;3311;48.32423000;14.29074500;2023-06-10T01:54:12;20.30;79.60
6556;DHT22;3311;48.32423000;14.29074500;2023-06-10T01:56:39;20.40;79.60
6556;DHT22;3311;48.32423000;14.29074500;2023-06-10T01:59:06;20.30;79.40
6556;DHT22;3311;48.32423000;14.29074500;2023-06-10T02:01:34;20.40;79.30
6556;DHT22;3311;48.32423000;14.29074500;2023-06-10T02:04:01;20.40;79.40
6556;DHT22;3311;48.32423000;14.29074500;2023-06-10T02:06:28;20.30;79.20
6556;DHT22;3311;48.32423000;14.29074500;2023-06-10T02:08:55;20.40;79.40
6556;DHT22;3311;48.32423000;14.29074500;2023-06-10T02:11:24;20.30;79.30
6556;DHT22;3311;48.32423000;14.29074500;2023-06-10T02:13:52;20.30;79.50
6556;DHT22;3311;48.32423000;14.29074500;2023-06-10T02:16:20;20.30;79.60
6556;DHT22;3311;48.32423000;14.29074500;2023-06-10T02:18:47;20.30;79.60
6556;DHT22;3311;48.32423000;14.29074500;2023-06-10T02:21:14;20.30;79.50
6556;DHT22;3311;48.32423000;14.29074500;2023-06-10T02:23:41;20.30;79.40
6556;DHT22;3311;48.32423000;14.29074500;2023-06-10T02:26:09;20.30;79.10
6556;DHT22;3311;48.32423000;14.29074500;2023-06-10T02:28:37;20.30;79.30
6556;DHT22;3311;48.32423000;14.29074500;2023-06-10T02:31:05;20.30;79.40
6556;DHT22;3311;48.32423000;14.29074500;2023-06-10T02:33:32;20.30;79.40
6556;DHT22;3311;48.32423000;14.29074500;2023-06-10T02:36:00;20.30;79.10
6556;DHT22;3311;48.32423000;14.29074500;2023-06-10T02:38:28;20.30;79.80
6556;DHT22;3311;48.32423000;14.29074500;2023-06-10T02:40:55;20.20;79.90
6556;DHT22;3311;48.32423000;14.29074500;2023-06-10T02:43:22;20.10;80.20
6556;DHT22;3311;48.32423000;14.29074500;2023-06-10T02:45:51;20.00;80.70
6556;DHT22;3311;48.32423000;14.29074500;2023-06-10T02:48:18;20.00;80.10
6556;DHT22;3311;48.32423000;14.29074500;2023-06-10T02:50:46;20.00;80.40
6556;DHT22;3311;48.32423000;14.29074500;2023-06-10T02:53:13;20.00;80.20
6556;DHT22;3311;48.32423000;14.29074500;2023-06-10T02:55:40;20.10;79.90
6556;DHT22;3311;48.32423000;14.29074500;2023-06-10T02:58:08;20.20;79.80
6556;DHT22;3311;48.32423000;14.29074500;2023-06-10T03:00:35;20.20;80.30
6556;DHT22;3311;48.32423000;14.29074500;2023-06-10T03:03:04;20.30;79.20
6556;DHT22;3311;48.32423000;14.29074500;2023-06-10T03:05:32;20.30;79.40
6556;DHT22;3311;48.32423000;14.29074500;2023-06-10T03:08:00;20.30;79.30
6556;DHT22;3311;48.32423000;14.29074500;2023-06-10T03:10:27;20.40;79.10
6556;DHT22;3311;48.32423000;14.29074500;2023-06-10T03:12:54;20.30;79.20
6556;DHT22;3311;48.32423000;14.29074500;2023-06-10T03:15:21;20.20;79.20
6556;DHT22;3311;48.32423000;14.29074500;2023-06-10T03:17:50;20.20;79.30
6556;DHT22;3311;48.32423000;14.29074500;2023-06-10T03:20:19;20.10;79.50
6556;DHT22;3311;48.32423000;14.29074500;2023-06-10T03:22:47;20.00;79.90
6556;DHT22;3311;48.32423000;14.29074500;2023-06-10T03:25:14;20.10;79.60
6556;DHT22;3311;48.32423000;14.29074500;2023-06-10T03:27:42;20.20;79.50
6556;DHT22;3311;48.32423000;14.29074500;2023-06-10T03:30:11;20.20;79.10
6556;DHT22;3311;48.32423000;14.29074500;2023-06-10T03:32:39;20.10;79.10
6556;DHT22;3311;48.32423000;14.29074500;2023-06-10T03:35:08;20.10;79.30
6556;DHT22;3311;48.32423000;14.29074500;2023-06-10T03:37:36;20.10;79.70
6556;DHT22;3311;48.32423000;14.29074500;2023-06-10T03:40:05;20.20;79.30
6556;DHT22;3311;48.32423000;14.29074500;2023-06-10T03:42:34;20.10;79.00
6556;DHT22;3311;48.32423000;14.29074500;2023-06-10T03:45:01;20.10;79.20
6556;DHT22;3311;48.32423000;14.29074500;2023-06-10T03:47:33;20.20;79.20
6556;DHT22;3311;48.32423000;14.29074500;2023-06-10T03:50:03;20.20;79.20
6556;DHT22;3311;48.32423000;14.29074500;2023-06-10T03:52:30;20.20;79.30
6556;DHT22;3311;48.32423000;14.29074500;2023-06-10T03:54:59;20.10;79.70
6556;DHT22;3311;48.32423000;14.29074500;2023-06-10T03:57:27;20.10;79.70
6556;DHT22;3311;48.32423000;14.29074500;2023-06-10T03:59:54;20.20;79.80
6556;DHT22;3311;48.32423000;14.29074500;2023-06-10T04:02:22;20.20;79.90
6556;DHT22;3311;48.32423000;14.29074500;2023-06-10T04:04:49;20.10;80.40
6556;DHT22;3311;48.32423000;14.29074500;2023-06-10T04:07:17;20.00;80.90
6556;DHT22;3311;48.32423000;14.29074500;2023-06-10T04:09:46;20.00;81.40
6556;DHT22;3311;48.32423000;14.29074500;2023-06-10T04:12:15;20.00;81.50
6556;DHT22;3311;48.32423000;14.29074500;2023-06-10T04:14:42;20.00;81.70
6556;DHT22;3311;48.32423000;14.29074500;2023-06-10T04:17:09;20.00;82.20
6556;DHT22;3311;48.32423000;14.29074500;2023-06-10T04:19:37;20.00;82.20
6556;DHT22;3311;48.32423000;14.29074500;2023-06-10T04:22:05;20.10;81.90
6556;DHT22;3311;48.32423000;14.29074500;2023-06-10T04:24:33;20.10;81.70
6556;DHT22;3311;48.32423000;14.29074500;2023-06-10T04:27:00;20.20;81.90
6556;DHT22;3311;48.32423000;14.29074500;2023-06-10T04:29:29;20.30;81.90
6556;DHT22;3311;48.32423000;14.29074500;2023-06-10T04:31:56;20.30;82.10
6556;DHT22;3311;48.32423000;14.29074500;2023-06-10T04:34:24;20.30;82.40
6556;DHT22;3311;48.32423000;14.29074500;2023-06-10T04:36:52;20.30;82.60
6556;DHT22;3311;48.32423000;14.29074500;2023-06-10T04:39:19;20.30;82.20
6556;DHT22;3311;48.32423000;14.29074500;2023-06-10T04:41:47;20.30;82.50
6556;DHT22;3311;48.32423000;14.29074500;2023-06-10T04:44:14;20.30;82.50
6556;DHT22;3311;48.32423000;14.29074500;2023-06-10T04:46:42;20.30;82.50
6556;DHT22;3311;48.32423000;14.29074500;2023-06-10T04:49:10;20.20;83.30
6556;DHT22;3311;48.32423000;14.29074500;2023-06-10T04:51:40;20.10;83.80
6556;DHT22;3311;48.32423000;14.29074500;2023-06-10T04:54:07;20.20;83.90
6556;DHT22;3311;48.32423000;14.29074500;2023-06-10T04:56:34;20.20;84.00
6556;DHT22;3311;48.32423000;14.29074500;2023-06-10T04:59:02;20.30;83.70
6556;DHT22;3311;48.32423000;14.29074500;2023-06-10T05:01:29;20.30;83.90
6556;DHT22;3311;48.32423000;14.29074500;2023-06-10T05:03:57;20.40;83.40
6556;DHT22;3311;48.32423000;14.29074500;2023-06-10T05:06:25;20.30;83.80
6556;DHT22;3311;48.32423000;14.29074500;2023-06-10T05:08:52;20.40;83.60
6556;DHT22;3311;48.32423000;14.29074500;2023-06-10T05:11:19;20.40;84.00
6556;DHT22;3311;48.32423000;14.29074500;2023-06-10T05:13:47;20.40;84.00
6556;DHT22;3311;48.32423000;14.29074500;2023-06-10T05:16:14;20.50;83.50
6556;DHT22;3311;48.32423000;14.29074500;2023-06-10T05:18:42;20.50;83.40
6556;DHT22;3311;48.32423000;14.29074500;2023-06-10T05:21:11;20.40;83.50
6556;DHT22;3311;48.32423000;14.29074500;2023-06-10T05:23:38;20.60;83.60
6556;DHT22;3311;48.32423000;14.29074500;2023-06-10T05:26:06;20.70;83.00
6556;DHT22;3311;48.32423000;14.29074500;2023-06-10T05:28:33;20.80;83.00
6556;DHT22;3311;48.32423000;14.29074500;2023-06-10T05:31:01;20.80;82.80
6556;DHT22;3311;48.32423000;14.29074500;2023-06-10T05:33:28;20.80;82.60
6556;DHT22;3311;48.32423000;14.29074500;2023-06-10T05:35:55;20.80;83.20
6556;DHT22;3311;48.32423000;14.29074500;2023-06-10T05:38:24;20.90;82.90
6556;DHT22;3311;48.32423000;14.29074500;2023-06-10T05:40:51;20.90;82.70
6556;DHT22;3311;48.32423000;14.29074500;2023-06-10T05:43:18;20.90;82.60
6556;DHT22;3311;48.32423000;14.29074500;2023-06-10T05:45:46;20.90;82.90
6556;DHT22;3311;48.32423000;14.29074500;2023-06-10T05:48:13;20.90;82.50
6556;DHT22;3311;48.32423000;14.29074500;2023-06-10T05:50:40;20.90;82.00
6556;DHT22;3311;48.32423000;14.29074500;2023-06-10T05:53:10;21.10;81.80
6556;DHT22;3311;48.32423000;14.29074500;2023-06-10T05:55:42;21.10;81.60
6556;DHT22;3311;48.32423000;14.29074500;2023-06-10T05:58:09;21.10;81.50
6556;DHT22;3311;48.32423000;14.29074500;2023-06-10T06:00:38;21.20;81.60
6556;DHT22;3311;48.32423000;14.29074500;2023-06-10T06:03:06;21.30;81.30
6556;DHT22;3311;48.32423000;14.29074500;2023-06-10T06:05:34;21.30;81.10
6556;DHT22;3311;48.32423000;14.29074500;2023-06-10T06:08:03;21.30;81.00
6556;DHT22;3311;48.32423000;14.29074500;2023-06-10T06:10:30;21.40;80.70
6556;DHT22;3311;48.32423000;14.29074500;2023-06-10T06:12:59;21.50;80.70
6556;DHT22;3311;48.32423000;14.29074500;2023-06-10T06:15:27;21.50;80.90
6556;DHT22;3311;48.32423000;14.29074500;2023-06-10T06:17:54;21.50;80.80
6556;DHT22;3311;48.32423000;14.29074500;2023-06-10T06:20:22;21.60;80.50
6556;DHT22;3311;48.32423000;14.29074500;2023-06-10T06:22:50;21.70;80.50
6556;DHT22;3311;48.32423000;14.29074500;2023-06-10T06:25:17;21.70;79.90
6556;DHT22;3311;48.32423000;14.29074500;2023-06-10T06:27:44;21.80;79.80
6556;DHT22;3311;48.32423000;14.29074500;2023-06-10T06:30:13;21.80;79.80
6556;DHT22;3311;48.32423000;14.29074500;2023-06-10T06:32:40;21.80;79.90
6556;DHT22;3311;48.32423000;14.29074500;2023-06-10T06:35:08;21.80;80.30
6556;DHT22;3311;48.32423000;14.29074500;2023-06-10T06:37:36;21.90;80.00
6556;DHT22;3311;48.32423000;14.29074500;2023-06-10T06:40:04;21.90;80.30
6556;DHT22;3311;48.32423000;14.29074500;2023-06-10T06:42:32;21.90;80.00
6556;DHT22;3311;48.32423000;14.29074500;2023-06-10T06:44:59;21.90;80.10
6556;DHT22;3311;48.32423000;14.29074500;2023-06-10T06:47:28;21.90;79.90
6556;DHT22;3311;48.32423000;14.29074500;2023-06-10T06:49:55;21.90;79.90
6556;DHT22;3311;48.32423000;14.29074500;2023-06-10T06:52:22;22.00;79.60
6556;DHT22;3311;48.32423000;14.29074500;2023-06-10T06:54:49;22.00;79.50
6556;DHT22;3311;48.32423000;14.29074500;2023-06-10T06:57:16;22.00;79.30
6556;DHT22;3311;48.32423000;14.29074500;2023-06-10T06:59:43;22.10;79.30
6556;DHT22;3311;48.32423000;14.29074500;2023-06-10T07:02:11;22.10;79.40
6556;DHT22;3311;48.32423000;14.29074500;2023-06-10T07:04:39;22.10;78.90
6556;DHT22;3311;48.32423000;14.29074500;2023-06-10T07:07:07;22.20;78.80
6556;DHT22;3311;48.32423000;14.29074500;2023-06-10T07:09:35;22.40;78.30
6556;DHT22;3311;48.32423000;14.29074500;2023-06-10T07:12:03;22.50;78.10
6556;DHT22;3311;48.32423000;14.29074500;2023-06-10T07:14:31;22.50;77.60
6556;DHT22;3311;48.32423000;14.29074500;2023-06-10T07:16:58;22.60;77.70
6556;DHT22;3311;48.32423000;14.29074500;2023-06-10T07:19:25;22.70;77.00
6556;DHT22;3311;48.32423000;14.29074500;2023-06-10T07:21:54;22.80;76.90
6556;DHT22;3311;48.32423000;14.29074500;2023-06-10T07:24:21;22.90;76.50
6556;DHT22;3311;48.32423000;14.29074500;2023-06-10T07:26:48;23.00;76.50
6556;DHT22;3311;48.32423000;14.29074500;2023-06-10T07:29:16;23.00;76.10
6556;DHT22;3311;48.32423000;14.29074500;2023-06-10T07:31:43;22.90;76.00
6556;DHT22;3311;48.32423000;14.29074500;2023-06-10T07:34:10;23.00;76.20
6556;DHT22;3311;48.32423000;14.29074500;2023-06-10T07:36:37;23.10;76.10
6556;DHT22;3311;48.32423000;14.29074500;2023-06-10T07:39:06;23.20;75.10
6556;DHT22;3311;48.32423000;14.29074500;2023-06-10T07:41:33;23.20;74.90
6556;DHT22;3311;48.32423000;14.29074500;2023-06-10T07:44:00;23.20;75.30
6556;DHT22;3311;48.32423000;14.29074500;2023-06-10T07:46:28;23.20;75.20
6556;DHT22;3311;48.32423000;14.29074500;2023-06-10T07:48:55;23.30;75.10
6556;DHT22;3311;48.32423000;14.29074500;2023-06-10T07:51:22;23.30;75.10
6556;DHT22;3311;48.32423000;14.29074500;2023-06-10T07:53:50;23.20;74.70
6556;DHT22;3311;48.32423000;14.29074500;2023-06-10T07:56:18;23.20;74.90
6556;DHT22;3311;48.32423000;14.29074500;2023-06-10T07:58:47;23.20;74.90
6556;DHT22;3311;48.32423000;14.29074500;2023-06-10T08:01:14;23.20;75.00
6556;DHT22;3311;48.32423000;14.29074500;2023-06-10T08:03:42;23.20;74.80
6556;DHT22;3311;48.32423000;14.29074500;2023-06-10T08:06:09;23.80;74.80
6556;DHT22;3311;48.32423000;14.29074500;2023-06-10T08:08:37;24.10;73.20
6556;DHT22;3311;48.32423000;14.29074500;2023-06-10T08:11:08;25.00;71.90
6556;DHT22;3311;48.32423000;14.29074500;2023-06-10T08:13:37;25.50;70.00
6556;DHT22;3311;48.32423000;14.29074500;2023-06-10T08:16:05;25.80;68.80
6556;DHT22;3311;48.32423000;14.29074500;2023-06-10T08:18:34;25.70;68.30
6556;DHT22;3311;48.32423000;14.29074500;2023-06-10T08:21:02;25.40;68.60
6556;DHT22;3311;48.32423000;14.29074500;2023-06-10T08:23:30;25.10;68.90
6556;DHT22;3311;48.32423000;14.29074500;2023-06-10T08:26:00;25.00;69.30
6556;DHT22;3311;48.32423000;14.29074500;2023-06-10T08:28:33;24.90;69.40
6556;DHT22;3311;48.32423000;14.29074500;2023-06-10T08:31:02;25.00;69.10
6556;DHT22;3311;48.32423000;14.29074500;2023-06-10T08:33:31;25.00;69.10
6556;DHT22;3311;48.32423000;14.29074500;2023-06-10T08:35:59;24.70;69.60
6556;DHT22;3311;48.32423000;14.29074500;2023-06-10T08:38:29;24.20;70.90
6556;DHT22;3311;48.32423000;14.29074500;2023-06-10T08:40:59;23.90;71.90
6556;DHT22;3311;48.32423000;14.29074500;2023-06-10T08:43:36;24.10;71.90
6556;DHT22;3311;48.32423000;14.29074500;2023-06-10T08:46:09;24.10;71.50
6556;DHT22;3311;48.32423000;14.29074500;2023-06-10T08:48:42;23.90;72.00
6556;DHT22;3311;48.32423000;14.29074500;2023-06-10T08:51:10;23.80;72.60
6556;DHT22;3311;48.32423000;14.29074500;2023-06-10T08:53:41;23.80;72.70
6556;DHT22;3311;48.32423000;14.29074500;2023-06-10T08:56:16;23.80;72.90
6556;DHT22;3311;48.32423000;14.29074500;2023-06-10T08:58:44;23.80;72.70
6556;DHT22;3311;48.32423000;14.29074500;2023-06-10T09:01:13;23.80;72.50
6556;DHT22;3311;48.32423000;14.29074500;2023-06-10T09:03:42;23.80;72.60
6556;DHT22;3311;48.32423000;14.29074500;2023-06-10T09:06:10;23.80;72.70
6556;DHT22;3311;48.32423000;14.29074500;2023-06-10T09:08:38;23.80;72.70
6556;DHT22;3311;48.32423000;14.29074500;2023-06-10T09:11:06;23.80;72.80
6556;DHT22;3311;48.32423000;14.29074500;2023-06-10T09:13:33;23.70;73.00
6556;DHT22;3311;48.32423000;14.29074500;2023-06-10T09:16:01;23.70;73.20
6556;DHT22;3311;48.32423000;14.29074500;2023-06-10T09:18:30;23.60;73.40
6556;DHT22;3311;48.32423000;14.29074500;2023-06-10T09:20:57;23.60;73.60
6556;DHT22;3311;48.32423000;14.29074500;2023-06-10T09:23:25;23.60;73.70
6556;DHT22;3311;48.32423000;14.29074500;2023-06-10T09:25:57;23.60;73.60
6556;DHT22;3311;48.32423000;14.29074500;2023-06-10T09:28:24;23.60;73.70
6556;DHT22;3311;48.32423000;14.29074500;2023-06-10T09:31:02;23.60;73.70
6556;DHT22;3311;48.32423000;14.29074500;2023-06-10T09:33:32;23.60;73.60
6556;DHT22;3311;48.32423000;14.29074500;2023-06-10T09:36:02;23.60;73.60
6556;DHT22;3311;48.32423000;14.29074500;2023-06-10T09:38:30;23.60;73.60
6556;DHT22;3311;48.32423000;14.29074500;2023-06-10T09:40:58;23.60;73.60
6556;DHT22;3311;48.32423000;14.29074500;2023-06-10T09:43:39;23.60;73.80
6556;DHT22;3311;48.32423000;14.29074500;2023-06-10T09:46:13;23.60;73.80
6556;DHT22;3311;48.32423000;14.29074500;2023-06-10T09:48:46;23.60;73.80
6556;DHT22;3311;48.32423000;14.29074500;2023-06-10T09:51:14;24.30;74.50
6556;DHT22;3311;48.32423000;14.29074500;2023-06-10T09:53:42;23.60;73.80
6556;DHT22;3311;48.32423000;14.29074500;2023-06-10T09:56:10;23.60;73.80
6556;DHT22;3311;48.32423000;14.29074500;2023-06-10T09:58:38;23.50;73.60
6556;DHT22;3311;48.32423000;14.29074500;2023-06-10T10:01:09;23.50;73.90
6556;DHT22;3311;48.32423000;14.29074500;2023-06-10T10:03:46;23.50;73.90
6556;DHT22;3311;48.32423000;14.29074500;2023-06-10T10:06:14;23.40;74.10
6556;DHT22;3311;48.32423000;14.29074500;2023-06-10T10:08:43;23.40;74.20
6556;DHT22;3311;48.32423000;14.29074500;2023-06-10T10:11:19;23.40;74.30
6556;DHT22;3311;48.32423000;14.29074500;2023-06-10T10:13:49;23.30;74.30
6556;DHT22;3311;48.32423000;14.29074500;2023-06-10T10:16:20;23.30;74.40
6556;DHT22;3311;48.32423000;14.29074500;2023-06-10T10:18:54;23.30;74.90
6556;DHT22;3311;48.32423000;14.29074500;2023-06-10T10:21:23;23.30;74.60
6556;DHT22;3311;48.32423000;14.29074500;2023-06-10T10:23:57;23.30;74.70
6556;DHT22;3311;48.32423000;14.29074500;2023-06-10T10:26:26;23.40;74.60
6556;DHT22;3311;48.32423000;14.29074500;2023-06-10T10:29:03;23.40;74.50
6556;DHT22;3311;48.32423000;14.29074500;2023-06-10T10:31:33;23.40;74.40
6556;DHT22;3311;48.32423000;14.29074500;2023-06-10T10:34:07;23.40;74.60
6556;DHT22;3311;48.32423000;14.29074500;2023-06-10T10:36:36;23.40;74.30
6556;DHT22;3311;48.32423000;14.29074500;2023-06-10T10:39:04;23.40;74.30
6556;DHT22;3311;48.32423000;14.29074500;2023-06-10T10:41:32;23.40;74.80
6556;DHT22;3311;48.32423000;14.29074500;2023-06-10T10:44:01;23.30;74.70
6556;DHT22;3311;48.32423000;14.29074500;2023-06-10T10:46:42;23.30;74.80
6556;DHT22;3311;48.32423000;14.29074500;2023-06-10T10:49:13;23.20;74.80
6556;DHT22;3311;48.32423000;14.29074500;2023-06-10T10:51:55;23.20;75.00
6556;DHT22;3311;48.32423000;14.29074500;2023-06-10T10:54:29;23.10;76.20
6556;DHT22;3311;48.32423000;14.29074500;2023-06-10T10:57:14;23.10;76.70
6556;DHT22;3311;48.32423000;14.29074500;2023-06-10T10:59:55;23.10;78.00
6556;DHT22;3311;48.32423000;14.29074500;2023-06-10T11:02:36;22.80;80.60
6556;DHT22;3311;48.32423000;14.29074500;2023-06-10T11:05:08;22.80;80.80
6556;DHT22;3311;48.32423000;14.29074500;2023-06-10T11:07:36;22.80;81.80
6556;DHT22;3311;48.32423000;14.29074500;2023-06-10T11:10:06;22.70;83.10
6556;DHT22;3311;48.32423000;14.29074500;2023-06-10T11:12:50;22.70;83.90
6556;DHT22;3311;48.32423000;14.29074500;2023-06-10T11:15:19;22.80;83.90
6556;DHT22;3311;48.32423000;14.29074500;2023-06-10T11:18:06;22.80;85.50
6556;DHT22;3311;48.32423000;14.29074500;2023-06-10T11:20:45;22.60;86.20
6556;DHT22;3311;48.32423000;14.29074500;2023-06-10T11:23:34;22.60;86.80
6556;DHT22;3311;48.32423000;14.29074500;2023-06-10T11:26:16;22.60;86.50
6556;DHT22;3311;48.32423000;14.29074500;2023-06-10T11:29:04;22.70;86.40
6556;DHT22;3311;48.32423000;14.29074500;2023-06-10T11:31:38;22.80;87.40
6556;DHT22;3311;48.32423000;14.29074500;2023-06-10T11:34:06;22.80;87.80
6556;DHT22;3311;48.32423000;14.29074500;2023-06-10T11:36:37;22.90;87.70
6556;DHT22;3311;48.32423000;14.29074500;2023-06-10T11:39:06;22.80;87.60
6556;DHT22;3311;48.32423000;14.29074500;2023-06-10T11:41:34;22.80;87.00
6556;DHT22;3311;48.32423000;14.29074500;2023-06-10T11:44:04;22.80;87.50
6556;DHT22;3311;48.32423000;14.29074500;2023-06-10T11:46:31;22.80;87.20
6556;DHT22;3311;48.32423000;14.29074500;2023-06-10T11:49:00;22.80;86.90
6556;DHT22;3311;48.32423000;14.29074500;2023-06-10T11:51:29;22.80;87.70
6556;DHT22;3311;48.32423000;14.29074500;2023-06-10T11:54:02;22.80;87.70
6556;DHT22;3311;48.32423000;14.29074500;2023-06-10T11:56:37;22.80;87.20
6556;DHT22;3311;48.32423000;14.29074500;2023-06-10T11:59:06;22.80;88.10
6556;DHT22;3311;48.32423000;14.29074500;2023-06-10T12:01:35;22.70;90.30
6556;DHT22;3311;48.32423000;14.29074500;2023-06-10T12:04:04;22.60;90.00
6556;DHT22;3311;48.32423000;14.29074500;2023-06-10T12:06:40;22.60;90.60
6556;DHT22;3311;48.32423000;14.29074500;2023-06-10T12:09:13;22.50;90.80
6556;DHT22;3311;48.32423000;14.29074500;2023-06-10T12:11:42;22.30;91.10
6556;DHT22;3311;48.32423000;14.29074500;2023-06-10T12:14:10;22.40;90.30
6556;DHT22;3311;48.32423000;14.29074500;2023-06-10T12:16:38;22.50;90.20
6556;DHT22;3311;48.32423000;14.29074500;2023-06-10T12:19:05;22.40;89.40
6556;DHT22;3311;48.32423000;14.29074500;2023-06-10T12:21:34;22.40;90.10
6556;DHT22;3311;48.32423000;14.29074500;2023-06-10T12:24:10;22.30;90.40
6556;DHT22;3311;48.32423000;14.29074500;2023-06-10T12:26:40;22.40;90.30
6556;DHT22;3311;48.32423000;14.29074500;2023-06-10T12:29:21;22.40;90.40
6556;DHT22;3311;48.32423000;14.29074500;2023-06-10T12:31:58;22.30;91.10
6556;DHT22;3311;48.32423000;14.29074500;2023-06-10T12:34:37;22.10;91.60
6556;DHT22;3311;48.32423000;14.29074500;2023-06-10T12:37:06;22.20;91.30
6556;DHT22;3311;48.32423000;14.29074500;2023-06-10T12:39:34;22.30;91.10
6556;DHT22;3311;48.32423000;14.29074500;2023-06-10T12:42:03;22.10;91.50
6556;DHT22;3311;48.32423000;14.29074500;2023-06-10T12:44:35;21.90;91.80
6556;DHT22;3311;48.32423000;14.29074500;2023-06-10T12:47:09;22.10;91.70
6556;DHT22;3311;48.32423000;14.29074500;2023-06-10T12:49:38;21.90;91.80
6556;DHT22;3311;48.32423000;14.29074500;2023-06-10T12:52:06;22.00;91.50
6556;DHT22;3311;48.32423000;14.29074500;2023-06-10T12:54:35;22.00;91.70
6556;DHT22;3311;48.32423000;14.29074500;2023-06-10T12:57:03;21.90;92.00
6556;DHT22;3311;48.32423000;14.29074500;2023-06-10T12:59:30;21.90;91.90
6556;DHT22;3311;48.32423000;14.29074500;2023-06-10T13:01:58;23.20;92.50
6556;DHT22;3311;48.32423000;14.29074500;2023-06-10T13:04:25;21.80;91.90
6556;DHT22;3311;48.32423000;14.29074500;2023-06-10T13:06:53;21.90;91.80
6556;DHT22;3311;48.32423000;14.29074500;2023-06-10T13:09:20;21.90;92.10
6556;DHT22;3311;48.32423000;14.29074500;2023-06-10T13:11:48;21.90;92.00
6556;DHT22;3311;48.32423000;14.29074500;2023-06-10T13:14:16;22.00;92.20
6556;DHT22;3311;48.32423000;14.29074500;2023-06-10T13:16:43;22.00;91.50
6556;DHT22;3311;48.32423000;14.29074500;2023-06-10T13:19:11;22.00;91.30
6556;DHT22;3311;48.32423000;14.29074500;2023-06-10T13:21:38;22.10;91.20
6556;DHT22;3311;48.32423000;14.29074500;2023-06-10T13:24:06;22.10;91.00
6556;DHT22;3311;48.32423000;14.29074500;2023-06-10T13:26:34;22.10;90.90
6556;DHT22;3311;48.32423000;14.29074500;2023-06-10T13:29:02;22.10;90.40
6556;DHT22;3311;48.32423000;14.29074500;2023-06-10T13:31:30;22.20;90.40
6556;DHT22;3311;48.32423000;14.29074500;2023-06-10T13:33:58;22.10;90.30
6556;DHT22;3311;48.32423000;14.29074500;2023-06-10T13:36:26;22.00;90.60
6556;DHT22;3311;48.32423000;14.29074500;2023-06-10T13:38:53;22.00;90.90
6556;DHT22;3311;48.32423000;14.29074500;2023-06-10T13:41:21;22.00;91.10
6556;DHT22;3311;48.32423000;14.29074500;2023-06-10T13:43:48;22.00;90.50
6556;DHT22;3311;48.32423000;14.29074500;2023-06-10T13:46:18;22.10;90.40